sensor_id;sensor_type;location;lat;lon;timestamp;temperature;humidity
25024;DHT22;13033;50.936;5.334;2022-11-10T00:01:52;10.50;99.90
25024;DHT22;13033;50.936;5.334;2022-11-10T00:04:17;10.60;99.90
25024;DHT22;13033;50.936;5.334;2022-11-10T00:06:46;10.60;99.90
25024;DHT22;13033;50.936;5.334;2022-11-10T00:09:11;10.60;99.90
25024;DHT22;13033;50.936;5.334;2022-11-10T00:11:37;10.60;99.90
25024;DHT22;13033;50.936;5.334;2022-11-10T00:14:03;10.70;99.90
25024;DHT22;13033;50.936;5.334;2022-11-10T00:16:47;10.70;99.90
25024;DHT22;13033;50.936;5.334;2022-11-10T00:19:34;10.70;99.90
25024;DHT22;13033;50.936;5.334;2022-11-10T00:22:00;10.70;99.90
25024;DHT22;13033;50.936;5.334;2022-11-10T00:24:27;10.70;99.90
25024;DHT22;13033;50.936;5.334;2022-11-10T00:26:54;10.60;99.90
25024;DHT22;13033;50.936;5.334;2022-11-10T00:29:20;10.60;99.90
25024;DHT22;13033;50.936;5.334;2022-11-10T00:31:46;10.70;99.90
25024;DHT22;13033;50.936;5.334;2022-11-10T00:34:15;10.70;99.90
25024;DHT22;13033;50.936;5.334;2022-11-10T00:36:42;10.60;99.90
25024;DHT22;13033;50.936;5.334;2022-11-10T00:39:08;10.60;99.90
25024;DHT22;13033;50.936;5.334;2022-11-10T00:41:34;10.60;99.90
25024;DHT22;13033;50.936;5.334;2022-11-10T00:44:00;10.60;99.90
25024;DHT22;13033;50.936;5.334;2022-11-10T00:46:25;10.50;99.90
25024;DHT22;13033;50.936;5.334;2022-11-10T00:48:51;10.40;99.90
25024;DHT22;13033;50.936;5.334;2022-11-10T00:51:22;10.50;99.90
25024;DHT22;13033;50.936;5.334;2022-11-10T00:53:49;10.50;99.90
25024;DHT22;13033;50.936;5.334;2022-11-10T00:56:15;10.50;99.90
25024;DHT22;13033;50.936;5.334;2022-11-10T00:58:41;10.50;99.90
25024;DHT22;13033;50.936;5.334;2022-11-10T01:01:07;10.50;99.90
25024;DHT22;13033;50.936;5.334;2022-11-10T01:03:33;10.50;99.90
25024;DHT22;13033;50.936;5.334;2022-11-10T01:06:04;10.50;99.90
25024;DHT22;13033;50.936;5.334;2022-11-10T01:08:30;10.50;99.90
25024;DHT22;13033;50.936;5.334;2022-11-10T01:11:13;10.50;99.90
25024;DHT22;13033;50.936;5.334;2022-11-10T01:13:40;10.30;99.90
25024;DHT22;13033;50.936;5.334;2022-11-10T01:16:19;10.40;99.90
25024;DHT22;13033;50.936;5.334;2022-11-10T01:18:50;10.40;99.90
25024;DHT22;13033;50.936;5.334;2022-11-10T01:21:16;10.40;99.90
25024;DHT22;13033;50.936;5.334;2022-11-10T01:23:42;10.40;99.90
25024;DHT22;13033;50.936;5.334;2022-11-10T01:26:08;10.30;99.90
25024;DHT22;13033;50.936;5.334;2022-11-10T01:28:35;10.30;99.90
25024;DHT22;13033;50.936;5.334;2022-11-10T01:31:10;10.50;99.90
25024;DHT22;13033;50.936;5.334;2022-11-10T01:33:36;10.40;99.90
25024;DHT22;13033;50.936;5.334;2022-11-10T01:36:02;10.40;99.90
25024;DHT22;13033;50.936;5.334;2022-11-10T01:38:32;10.50;99.90
25024;DHT22;13033;50.936;5.334;2022-11-10T01:40:58;10.40;99.90
25024;DHT22;13033;50.936;5.334;2022-11-10T01:43:24;10.40;99.90
25024;DHT22;13033;50.936;5.334;2022-11-10T01:45:52;10.40;99.90
25024;DHT22;13033;50.936;5.334;2022-11-10T01:48:41;10.40;99.90
25024;DHT22;13033;50.936;5.334;2022-11-10T01:54:12;10.40;99.90
25024;DHT22;13033;50.936;5.334;2022-11-10T01:56:41;10.50;99.90
25024;DHT22;13033;50.936;5.334;2022-11-10T01:59:12;10.50;99.90
25024;DHT22;13033;50.936;5.334;2022-11-10T02:01:38;10.40;99.90
25024;DHT22;13033;50.936;5.334;2022-11-10T02:04:10;10.30;99.90
25024;DHT22;13033;50.936;5.334;2022-11-10T02:06:40;10.20;99.90
25024;DHT22;13033;50.936;5.334;2022-11-10T02:09:06;10.10;99.90
25024;DHT22;13033;50.936;5.334;2022-11-10T02:11:32;10.30;99.90
25024;DHT22;13033;50.936;5.334;2022-11-10T02:13:59;10.30;99.90
25024;DHT22;13033;50.936;5.334;2022-11-10T02:16:25;10.30;99.90
25024;DHT22;13033;50.936;5.334;2022-11-10T02:18:51;10.30;99.90
25024;DHT22;13033;50.936;5.334;2022-11-10T02:21:19;10.50;99.90
25024;DHT22;13033;50.936;5.334;2022-11-10T02:23:48;10.50;99.90
25024;DHT22;13033;50.936;5.334;2022-11-10T02:26:16;10.40;99.90
25024;DHT22;13033;50.936;5.334;2022-11-10T02:28:42;10.40;99.90
25024;DHT22;13033;50.936;5.334;2022-11-10T02:31:08;10.20;99.90
25024;DHT22;13033;50.936;5.334;2022-11-10T02:33:35;10.30;99.90
25024;DHT22;13033;50.936;5.334;2022-11-10T02:36:01;10.20;99.90
25024;DHT22;13033;50.936;5.334;2022-11-10T02:38:27;10.20;99.90
25024;DHT22;13033;50.936;5.334;2022-11-10T02:40:52;10.30;99.90
25024;DHT22;13033;50.936;5.334;2022-11-10T02:43:18;10.30;99.90
25024;DHT22;13033;50.936;5.334;2022-11-10T02:45:44;10.30;99.90
25024;DHT22;13033;50.936;5.334;2022-11-10T02:48:12;10.40;99.90
25024;DHT22;13033;50.936;5.334;2022-11-10T02:50:38;10.40;99.90
25024;DHT22;13033;50.936;5.334;2022-11-10T02:53:04;10.30;99.90
25024;DHT22;13033;50.936;5.334;2022-11-10T02:55:30;10.30;99.90
25024;DHT22;13033;50.936;5.334;2022-11-10T02:57:56;10.40;99.90
25024;DHT22;13033;50.936;5.334;2022-11-10T03:00:22;10.40;99.90
25024;DHT22;13033;50.936;5.334;2022-11-10T03:02:48;10.40;99.90
25024;DHT22;13033;50.936;5.334;2022-11-10T03:05:14;10.50;99.90
25024;DHT22;13033;50.936;5.334;2022-11-10T03:07:40;10.50;99.90
25024;DHT22;13033;50.936;5.334;2022-11-10T03:10:06;10.80;99.90
25024;DHT22;13033;50.936;5.334;2022-11-10T03:12:32;10.80;99.90
25024;DHT22;13033;50.936;5.334;2022-11-10T03:14:57;10.80;99.90
25024;DHT22;13033;50.936;5.334;2022-11-10T03:17:23;10.70;99.90
25024;DHT22;13033;50.936;5.334;2022-11-10T03:19:49;10.70;99.90
25024;DHT22;13033;50.936;5.334;2022-11-10T03:22:15;10.60;99.90
25024;DHT22;13033;50.936;5.334;2022-11-10T03:24:41;10.60;99.90
25024;DHT22;13033;50.936;5.334;2022-11-10T03:27:06;10.60;99.90
25024;DHT22;13033;50.936;5.334;2022-11-10T03:29:32;10.70;99.90
25024;DHT22;13033;50.936;5.334;2022-11-10T03:31:58;10.60;99.90
25024;DHT22;13033;50.936;5.334;2022-11-10T03:34:23;10.50;99.90
25024;DHT22;13033;50.936;5.334;2022-11-10T03:36:49;10.40;99.90
25024;DHT22;13033;50.936;5.334;2022-11-10T03:39:15;10.30;99.90
25024;DHT22;13033;50.936;5.334;2022-11-10T03:41:40;10.30;99.90
25024;DHT22;13033;50.936;5.334;2022-11-10T03:44:06;10.30;99.90
25024;DHT22;13033;50.936;5.334;2022-11-10T03:46:32;10.40;99.90
25024;DHT22;13033;50.936;5.334;2022-11-10T03:49:05;10.30;99.90
25024;DHT22;13033;50.936;5.334;2022-11-10T03:51:31;10.20;99.90
25024;DHT22;13033;50.936;5.334;2022-11-10T03:53:56;10.20;99.90
25024;DHT22;13033;50.936;5.334;2022-11-10T03:56:22;10.20;99.90
25024;DHT22;13033;50.936;5.334;2022-11-10T03:58:47;10.20;99.90
25024;DHT22;13033;50.936;5.334;2022-11-10T04:01:13;10.20;99.90
25024;DHT22;13033;50.936;5.334;2022-11-10T04:03:39;10.20;99.90
25024;DHT22;13033;50.936;5.334;2022-11-10T04:06:04;10.20;99.90
25024;DHT22;13033;50.936;5.334;2022-11-10T04:08:48;10.10;99.90
25024;DHT22;13033;50.936;5.334;2022-11-10T04:11:24;10.10;99.90
25024;DHT22;13033;50.936;5.334;2022-11-10T04:14:08;10.10;99.90
25024;DHT22;13033;50.936;5.334;2022-11-10T04:16:53;10.20;99.90
25024;DHT22;13033;50.936;5.334;2022-11-10T04:19:18;10.10;99.90
25024;DHT22;13033;50.936;5.334;2022-11-10T04:21:44;10.10;99.90
25024;DHT22;13033;50.936;5.334;2022-11-10T04:24:09;10.00;99.90
25024;DHT22;13033;50.936;5.334;2022-11-10T04:26:35;10.10;99.90
25024;DHT22;13033;50.936;5.334;2022-11-10T04:29:09;10.10;99.90
25024;DHT22;13033;50.936;5.334;2022-11-10T04:31:37;10.10;99.90
25024;DHT22;13033;50.936;5.334;2022-11-10T04:34:05;9.90;99.90
25024;DHT22;13033;50.936;5.334;2022-11-10T04:36:33;10.00;99.90
25024;DHT22;13033;50.936;5.334;2022-11-10T04:38:59;10.00;99.90
25024;DHT22;13033;50.936;5.334;2022-11-10T04:41:26;9.90;99.90
25024;DHT22;13033;50.936;5.334;2022-11-10T04:43:52;9.80;99.90
25024;DHT22;13033;50.936;5.334;2022-11-10T04:46:32;9.90;99.90
25024;DHT22;13033;50.936;5.334;2022-11-10T04:48:58;9.90;99.90
25024;DHT22;13033;50.936;5.334;2022-11-10T04:51:26;9.90;99.90
25024;DHT22;13033;50.936;5.334;2022-11-10T04:53:52;9.80;99.90
25024;DHT22;13033;50.936;5.334;2022-11-10T04:56:19;9.70;99.90
25024;DHT22;13033;50.936;5.334;2022-11-10T04:58:45;9.80;99.90
25024;DHT22;13033;50.936;5.334;2022-11-10T05:01:13;9.70;99.90
25024;DHT22;13033;50.936;5.334;2022-11-10T05:03:40;9.80;99.90
25024;DHT22;13033;50.936;5.334;2022-11-10T05:06:06;9.70;99.90
25024;DHT22;13033;50.936;5.334;2022-11-10T05:08:32;9.60;99.90
25024;DHT22;13033;50.936;5.334;2022-11-10T05:10:58;9.60;99.90
25024;DHT22;13033;50.936;5.334;2022-11-10T05:13:23;9.60;99.90
25024;DHT22;13033;50.936;5.334;2022-11-10T05:15:49;9.70;99.90
25024;DHT22;13033;50.936;5.334;2022-11-10T05:18:16;9.60;99.90
25024;DHT22;13033;50.936;5.334;2022-11-10T05:20:41;9.60;99.90
25024;DHT22;13033;50.936;5.334;2022-11-10T05:23:07;9.60;99.90
25024;DHT22;13033;50.936;5.334;2022-11-10T05:25:51;9.60;99.90
25024;DHT22;13033;50.936;5.334;2022-11-10T05:28:17;9.60;99.90
25024;DHT22;13033;50.936;5.334;2022-11-10T05:30:43;9.40;99.90
25024;DHT22;13033;50.936;5.334;2022-11-10T05:33:09;9.30;99.90
25024;DHT22;13033;50.936;5.334;2022-11-10T05:35:35;9.40;99.90
25024;DHT22;13033;50.936;5.334;2022-11-10T05:38:02;9.50;99.90
25024;DHT22;13033;50.936;5.334;2022-11-10T05:40:28;9.40;99.90
25024;DHT22;13033;50.936;5.334;2022-11-10T05:42:54;9.40;99.90
25024;DHT22;13033;50.936;5.334;2022-11-10T05:45:22;9.40;99.90
25024;DHT22;13033;50.936;5.334;2022-11-10T05:47:48;9.50;99.90
25024;DHT22;13033;50.936;5.334;2022-11-10T05:50:14;9.50;99.90
25024;DHT22;13033;50.936;5.334;2022-11-10T05:52:47;9.50;99.90
25024;DHT22;13033;50.936;5.334;2022-11-10T05:55:13;9.40;99.90
25024;DHT22;13033;50.936;5.334;2022-11-10T05:57:44;9.40;99.90
25024;DHT22;13033;50.936;5.334;2022-11-10T06:00:11;9.40;99.90
25024;DHT22;13033;50.936;5.334;2022-11-10T06:02:37;9.40;99.90
25024;DHT22;13033;50.936;5.334;2022-11-10T06:05:03;9.40;99.90
25024;DHT22;13033;50.936;5.334;2022-11-10T06:07:29;9.40;99.90
25024;DHT22;13033;50.936;5.334;2022-11-10T06:09:54;9.40;99.90
25024;DHT22;13033;50.936;5.334;2022-11-10T06:12:20;9.30;99.90
25024;DHT22;13033;50.936;5.334;2022-11-10T06:14:46;9.30;99.90
25024;DHT22;13033;50.936;5.334;2022-11-10T06:17:13;9.30;99.90
25024;DHT22;13033;50.936;5.334;2022-11-10T06:19:39;9.30;99.90
25024;DHT22;13033;50.936;5.334;2022-11-10T06:22:04;9.20;99.90
25024;DHT22;13033;50.936;5.334;2022-11-10T06:24:30;9.30;99.90
25024;DHT22;13033;50.936;5.334;2022-11-10T06:26:56;9.20;99.90
25024;DHT22;13033;50.936;5.334;2022-11-10T06:29:21;9.10;99.90
25024;DHT22;13033;50.936;5.334;2022-11-10T06:31:47;9.10;99.90
25024;DHT22;13033;50.936;5.334;2022-11-10T06:34:12;9.20;99.90
25024;DHT22;13033;50.936;5.334;2022-11-10T06:36:39;9.20;99.90
25024;DHT22;13033;50.936;5.334;2022-11-10T06:39:05;9.10;99.90
25024;DHT22;13033;50.936;5.334;2022-11-10T06:41:31;9.20;99.90
25024;DHT22;13033;50.936;5.334;2022-11-10T06:43:58;9.20;99.90
25024;DHT22;13033;50.936;5.334;2022-11-10T06:46:25;9.20;99.90
25024;DHT22;13033;50.936;5.334;2022-11-10T06:48:51;9.20;99.90
25024;DHT22;13033;50.936;5.334;2022-11-10T06:51:16;9.20;99.90
25024;DHT22;13033;50.936;5.334;2022-11-10T06:53:42;9.20;99.90
25024;DHT22;13033;50.936;5.334;2022-11-10T06:56:08;9.40;99.90
25024;DHT22;13033;50.936;5.334;2022-11-10T06:58:34;9.40;99.90
25024;DHT22;13033;50.936;5.334;2022-11-10T07:01:00;9.30;99.90
25024;DHT22;13033;50.936;5.334;2022-11-10T07:03:26;9.30;99.90
25024;DHT22;13033;50.936;5.334;2022-11-10T07:05:52;9.30;99.90
25024;DHT22;13033;50.936;5.334;2022-11-10T07:08:17;9.20;99.90
25024;DHT22;13033;50.936;5.334;2022-11-10T07:10:49;9.20;99.90
25024;DHT22;13033;50.936;5.334;2022-11-10T07:13:15;9.20;99.90
25024;DHT22;13033;50.936;5.334;2022-11-10T07:15:41;9.30;99.90
25024;DHT22;13033;50.936;5.334;2022-11-10T07:18:07;9.40;99.90
25024;DHT22;13033;50.936;5.334;2022-11-10T07:20:32;9.40;99.90
25024;DHT22;13033;50.936;5.334;2022-11-10T07:23:02;9.40;99.90
25024;DHT22;13033;50.936;5.334;2022-11-10T07:25:30;9.50;99.90
25024;DHT22;13033;50.936;5.334;2022-11-10T07:28:00;9.50;99.90
25024;DHT22;13033;50.936;5.334;2022-11-10T07:30:27;9.50;99.90
25024;DHT22;13033;50.936;5.334;2022-11-10T07:33:04;9.60;99.90
25024;DHT22;13033;50.936;5.334;2022-11-10T07:35:32;9.70;99.90
25024;DHT22;13033;50.936;5.334;2022-11-10T07:38:04;9.80;99.90
25024;DHT22;13033;50.936;5.334;2022-11-10T07:40:30;9.80;99.90
25024;DHT22;13033;50.936;5.334;2022-11-10T07:42:56;9.90;99.90
25024;DHT22;13033;50.936;5.334;2022-11-10T07:45:22;10.00;99.90
25024;DHT22;13033;50.936;5.334;2022-11-10T07:47:48;10.10;99.90
25024;DHT22;13033;50.936;5.334;2022-11-10T07:50:15;10.10;99.90
25024;DHT22;13033;50.936;5.334;2022-11-10T07:52:41;10.10;99.90
25024;DHT22;13033;50.936;5.334;2022-11-10T07:55:07;10.10;99.90
25024;DHT22;13033;50.936;5.334;2022-11-10T07:57:32;10.20;99.90
25024;DHT22;13033;50.936;5.334;2022-11-10T07:59:58;10.20;99.90
25024;DHT22;13033;50.936;5.334;2022-11-10T08:02:24;10.30;99.90
25024;DHT22;13033;50.936;5.334;2022-11-10T08:04:50;10.50;99.90
25024;DHT22;13033;50.936;5.334;2022-11-10T08:07:16;10.50;99.90
25024;DHT22;13033;50.936;5.334;2022-11-10T08:09:42;10.60;99.90
25024;DHT22;13033;50.936;5.334;2022-11-10T08:12:07;10.60;99.90
25024;DHT22;13033;50.936;5.334;2022-11-10T08:14:33;10.60;99.90
25024;DHT22;13033;50.936;5.334;2022-11-10T08:16:59;10.60;99.90
25024;DHT22;13033;50.936;5.334;2022-11-10T08:19:24;10.70;99.90
25024;DHT22;13033;50.936;5.334;2022-11-10T08:21:50;10.70;99.90
25024;DHT22;13033;50.936;5.334;2022-11-10T08:24:16;10.80;99.90
25024;DHT22;13033;50.936;5.334;2022-11-10T08:26:41;10.90;99.90
25024;DHT22;13033;50.936;5.334;2022-11-10T08:29:07;10.90;99.90
25024;DHT22;13033;50.936;5.334;2022-11-10T08:31:32;11.00;99.90
25024;DHT22;13033;50.936;5.334;2022-11-10T08:33:58;11.10;99.90
25024;DHT22;13033;50.936;5.334;2022-11-10T08:36:24;11.10;99.90
25024;DHT22;13033;50.936;5.334;2022-11-10T08:38:50;11.20;99.90
25024;DHT22;13033;50.936;5.334;2022-11-10T08:41:15;11.40;99.90
25024;DHT22;13033;50.936;5.334;2022-11-10T08:43:41;11.40;99.90
25024;DHT22;13033;50.936;5.334;2022-11-10T08:46:07;11.50;99.90
25024;DHT22;13033;50.936;5.334;2022-11-10T08:48:33;11.60;99.90
25024;DHT22;13033;50.936;5.334;2022-11-10T08:50:59;11.70;99.90
25024;DHT22;13033;50.936;5.334;2022-11-10T08:53:26;11.80;99.90
25024;DHT22;13033;50.936;5.334;2022-11-10T08:55:51;12.00;99.90
25024;DHT22;13033;50.936;5.334;2022-11-10T08:58:19;11.90;99.90
25024;DHT22;13033;50.936;5.334;2022-11-10T09:00:46;11.90;99.90
25024;DHT22;13033;50.936;5.334;2022-11-10T09:03:13;11.90;99.90
25024;DHT22;13033;50.936;5.334;2022-11-10T09:05:40;12.00;99.90
25024;DHT22;13033;50.936;5.334;2022-11-10T09:08:06;12.10;99.90
25024;DHT22;13033;50.936;5.334;2022-11-10T09:10:35;12.20;99.90
25024;DHT22;13033;50.936;5.334;2022-11-10T09:13:02;12.20;99.90
25024;DHT22;13033;50.936;5.334;2022-11-10T09:15:29;12.20;99.90
25024;DHT22;13033;50.936;5.334;2022-11-10T09:17:57;12.40;99.90
25024;DHT22;13033;50.936;5.334;2022-11-10T09:20:24;12.50;99.90
25024;DHT22;13033;50.936;5.334;2022-11-10T09:22:50;12.60;99.90
25024;DHT22;13033;50.936;5.334;2022-11-10T09:25:15;12.60;99.90
25024;DHT22;13033;50.936;5.334;2022-11-10T09:27:41;12.60;99.90
25024;DHT22;13033;50.936;5.334;2022-11-10T09:30:07;12.70;99.90
25024;DHT22;13033;50.936;5.334;2022-11-10T09:32:33;12.90;99.90
25024;DHT22;13033;50.936;5.334;2022-11-10T09:34:59;12.80;99.90
25024;DHT22;13033;50.936;5.334;2022-11-10T09:37:25;12.90;99.90
25024;DHT22;13033;50.936;5.334;2022-11-10T09:39:50;13.10;99.90
25024;DHT22;13033;50.936;5.334;2022-11-10T09:45:05;13.40;99.90
25024;DHT22;13033;50.936;5.334;2022-11-10T09:47:41;13.30;99.90
25024;DHT22;13033;50.936;5.334;2022-11-10T09:50:17;13.20;99.90
25024;DHT22;13033;50.936;5.334;2022-11-10T09:52:46;13.20;99.90
25024;DHT22;13033;50.936;5.334;2022-11-10T09:55:29;13.30;99.90
25024;DHT22;13033;50.936;5.334;2022-11-10T09:57:56;13.50;99.90
25024;DHT22;13033;50.936;5.334;2022-11-10T10:00:23;13.40;99.90
25024;DHT22;13033;50.936;5.334;2022-11-10T10:02:55;13.40;99.90
25024;DHT22;13033;50.936;5.334;2022-11-10T10:05:32;13.40;99.90
25024;DHT22;13033;50.936;5.334;2022-11-10T10:08:15;13.40;99.90
25024;DHT22;13033;50.936;5.334;2022-11-10T10:10:59;13.40;99.90
25024;DHT22;13033;50.936;5.334;2022-11-10T10:13:54;13.40;99.90
25024;DHT22;13033;50.936;5.334;2022-11-10T10:24:42;13.80;99.90
25024;DHT22;13033;50.936;5.334;2022-11-10T10:27:18;13.80;99.90
25024;DHT22;13033;50.936;5.334;2022-11-10T10:29:46;13.80;99.90
25024;DHT22;13033;50.936;5.334;2022-11-10T10:32:14;13.90;99.90
25024;DHT22;13033;50.936;5.334;2022-11-10T10:34:41;13.90;99.90
25024;DHT22;13033;50.936;5.334;2022-11-10T10:37:25;14.00;99.90
25024;DHT22;13033;50.936;5.334;2022-11-10T10:39:53;14.00;99.90
25024;DHT22;13033;50.936;5.334;2022-11-10T10:42:35;14.10;99.90
25024;DHT22;13033;50.936;5.334;2022-11-10T10:47:42;14.20;99.90
25024;DHT22;13033;50.936;5.334;2022-11-10T10:50:26;14.40;99.90
25024;DHT22;13033;50.936;5.334;2022-11-10T10:53:06;14.30;99.90
25024;DHT22;13033;50.936;5.334;2022-11-10T10:55:34;14.30;99.90
25024;DHT22;13033;50.936;5.334;2022-11-10T10:58:03;14.30;99.90
25024;DHT22;13033;50.936;5.334;2022-11-10T11:00:30;14.30;99.90
25024;DHT22;13033;50.936;5.334;2022-11-10T11:03:04;14.40;99.90
25024;DHT22;13033;50.936;5.334;2022-11-10T11:05:31;14.50;99.90
25024;DHT22;13033;50.936;5.334;2022-11-10T11:08:01;14.50;99.90
25024;DHT22;13033;50.936;5.334;2022-11-10T11:10:33;14.50;99.90
25024;DHT22;13033;50.936;5.334;2022-11-10T11:16:05;14.90;99.90
25024;DHT22;13033;50.936;5.334;2022-11-10T11:18:34;14.80;99.90
25024;DHT22;13033;50.936;5.334;2022-11-10T11:29:20;15.00;99.90
25024;DHT22;13033;50.936;5.334;2022-11-10T11:32:14;15.10;99.90
25024;DHT22;13033;50.936;5.334;2022-11-10T11:34:58;15.20;99.90
25024;DHT22;13033;50.936;5.334;2022-11-10T11:40:03;15.50;99.90
25024;DHT22;13033;50.936;5.334;2022-11-10T11:53:06;15.80;99.90
25024;DHT22;13033;50.936;5.334;2022-11-10T11:58:42;15.70;99.90
25024;DHT22;13033;50.936;5.334;2022-11-10T12:06:50;16.10;99.90
25024;DHT22;13033;50.936;5.334;2022-11-10T12:09:43;16.20;99.90
25024;DHT22;13033;50.936;5.334;2022-11-10T12:24:03;16.00;99.90
25024;DHT22;13033;50.936;5.334;2022-11-10T12:32:08;15.80;99.90
25024;DHT22;13033;50.936;5.334;2022-11-10T12:34:40;15.70;99.90
25024;DHT22;13033;50.936;5.334;2022-11-10T12:37:41;15.70;99.90
25024;DHT22;13033;50.936;5.334;2022-11-10T12:40:47;15.80;99.90
25024;DHT22;13033;50.936;5.334;2022-11-10T12:46:00;15.70;99.90
25024;DHT22;13033;50.936;5.334;2022-11-10T12:48:38;15.70;99.90
25024;DHT22;13033;50.936;5.334;2022-11-10T12:51:12;15.70;99.90
25024;DHT22;13033;50.936;5.334;2022-11-10T12:53:42;15.80;99.90
25024;DHT22;13033;50.936;5.334;2022-11-10T12:58:38;16.00;99.90
25024;DHT22;13033;50.936;5.334;2022-11-10T13:01:11;16.10;99.90
25024;DHT22;13033;50.936;5.334;2022-11-10T13:03:38;16.20;99.90
25024;DHT22;13033;50.936;5.334;2022-11-10T13:06:34;16.20;99.90
25024;DHT22;13033;50.936;5.334;2022-11-10T13:09:04;16.10;99.90
25024;DHT22;13033;50.936;5.334;2022-11-10T13:11:34;16.20;99.90
25024;DHT22;13033;50.936;5.334;2022-11-10T13:14:03;16.10;99.90
25024;DHT22;13033;50.936;5.334;2022-11-10T13:19:44;15.80;99.90
25024;DHT22;13033;50.936;5.334;2022-11-10T13:22:10;15.90;99.90
25024;DHT22;13033;50.936;5.334;2022-11-10T13:24:38;15.90;99.90
25024;DHT22;13033;50.936;5.334;2022-11-10T13:29:55;15.80;99.90
25024;DHT22;13033;50.936;5.334;2022-11-10T13:34:49;15.90;99.90
25024;DHT22;13033;50.936;5.334;2022-11-10T13:56:56;15.90;99.90
25024;DHT22;13033;50.936;5.334;2022-11-10T13:59:27;15.80;99.90
25024;DHT22;13033;50.936;5.334;2022-11-10T14:05:05;15.60;99.90
25024;DHT22;13033;50.936;5.334;2022-11-10T14:07:40;15.70;99.90
25024;DHT22;13033;50.936;5.334;2022-11-10T14:10:20;15.70;99.90
25024;DHT22;13033;50.936;5.334;2022-11-10T14:12:57;15.80;99.90
25024;DHT22;13033;50.936;5.334;2022-11-10T14:15:41;15.80;99.90
25024;DHT22;13033;50.936;5.334;2022-11-10T14:20:44;15.70;99.90
25024;DHT22;13033;50.936;5.334;2022-11-10T14:28:55;15.70;99.90
25024;DHT22;13033;50.936;5.334;2022-11-10T14:31:23;15.70;99.90
25024;DHT22;13033;50.936;5.334;2022-11-10T14:33:57;15.50;99.90
25024;DHT22;13033;50.936;5.334;2022-11-10T14:36:23;15.50;99.90
25024;DHT22;13033;50.936;5.334;2022-11-10T14:38:50;15.50;99.90
25024;DHT22;13033;50.936;5.334;2022-11-10T14:41:18;15.50;99.90
25024;DHT22;13033;50.936;5.334;2022-11-10T14:44:03;15.40;99.90
25024;DHT22;13033;50.936;5.334;2022-11-10T14:46:29;15.40;99.90
25024;DHT22;13033;50.936;5.334;2022-11-10T14:48:56;15.20;99.90
25024;DHT22;13033;50.936;5.334;2022-11-10T14:51:24;15.20;99.90
25024;DHT22;13033;50.936;5.334;2022-11-10T14:53:53;15.30;99.90
25024;DHT22;13033;50.936;5.334;2022-11-10T14:56:27;15.40;99.90
25024;DHT22;13033;50.936;5.334;2022-11-10T14:58:55;15.60;99.90
25024;DHT22;13033;50.936;5.334;2022-11-10T15:03:49;15.60;99.90
25024;DHT22;13033;50.936;5.334;2022-11-10T15:06:15;15.70;99.90
25024;DHT22;13033;50.936;5.334;2022-11-10T15:08:41;15.70;99.90
25024;DHT22;13033;50.936;5.334;2022-11-10T15:11:37;15.80;99.90
25024;DHT22;13033;50.936;5.334;2022-11-10T15:14:03;16.00;99.90
25024;DHT22;13033;50.936;5.334;2022-11-10T15:16:34;15.80;99.90
25024;DHT22;13033;50.936;5.334;2022-11-10T15:19:26;15.50;99.90
25024;DHT22;13033;50.936;5.334;2022-11-10T15:21:52;15.20;99.90
25024;DHT22;13033;50.936;5.334;2022-11-10T15:24:18;15.10;99.90
25024;DHT22;13033;50.936;5.334;2022-11-10T15:26:44;14.90;99.90
25024;DHT22;13033;50.936;5.334;2022-11-10T15:29:22;14.90;99.90
25024;DHT22;13033;50.936;5.334;2022-11-10T15:31:50;14.80;99.90
25024;DHT22;13033;50.936;5.334;2022-11-10T15:34:40;14.80;99.90
25024;DHT22;13033;50.936;5.334;2022-11-10T15:39:47;14.50;99.90
25024;DHT22;13033;50.936;5.334;2022-11-10T15:42:21;14.40;99.90
25024;DHT22;13033;50.936;5.334;2022-11-10T15:44:47;14.30;99.90
25024;DHT22;13033;50.936;5.334;2022-11-10T15:47:14;14.30;99.90
25024;DHT22;13033;50.936;5.334;2022-11-10T15:49:42;14.20;99.90
25024;DHT22;13033;50.936;5.334;2022-11-10T15:52:15;14.20;99.90
25024;DHT22;13033;50.936;5.334;2022-11-10T15:54:41;14.10;99.90
25024;DHT22;13033;50.936;5.334;2022-11-10T15:57:15;14.00;99.90
25024;DHT22;13033;50.936;5.334;2022-11-10T15:59:41;13.90;99.90
25024;DHT22;13033;50.936;5.334;2022-11-10T16:02:21;13.90;99.90
25024;DHT22;13033;50.936;5.334;2022-11-10T16:04:49;13.80;99.90
25024;DHT22;13033;50.936;5.334;2022-11-10T16:07:15;13.70;99.90
25024;DHT22;13033;50.936;5.334;2022-11-10T16:09:41;13.60;99.90
25024;DHT22;13033;50.936;5.334;2022-11-10T16:12:12;13.50;99.90
25024;DHT22;13033;50.936;5.334;2022-11-10T16:14:39;13.50;99.90
25024;DHT22;13033;50.936;5.334;2022-11-10T16:17:08;13.60;99.90
25024;DHT22;13033;50.936;5.334;2022-11-10T16:19:34;13.60;99.90
25024;DHT22;13033;50.936;5.334;2022-11-10T16:21:59;13.40;99.90
25024;DHT22;13033;50.936;5.334;2022-11-10T16:24:25;13.40;99.90
25024;DHT22;13033;50.936;5.334;2022-11-10T16:26:51;13.20;99.90
25024;DHT22;13033;50.936;5.334;2022-11-10T16:29:16;13.20;99.90
25024;DHT22;13033;50.936;5.334;2022-11-10T16:31:44;13.20;99.90
25024;DHT22;13033;50.936;5.334;2022-11-10T16:34:12;13.10;99.90
25024;DHT22;13033;50.936;5.334;2022-11-10T16:36:38;13.20;99.90
25024;DHT22;13033;50.936;5.334;2022-11-10T16:39:11;13.10;99.90
25024;DHT22;13033;50.936;5.334;2022-11-10T16:41:37;13.20;99.90
25024;DHT22;13033;50.936;5.334;2022-11-10T16:44:13;12.90;99.90
25024;DHT22;13033;50.936;5.334;2022-11-10T16:46:44;12.90;99.90
25024;DHT22;13033;50.936;5.334;2022-11-10T16:49:34;12.90;99.90
25024;DHT22;13033;50.936;5.334;2022-11-10T16:52:10;12.80;99.90
25024;DHT22;13033;50.936;5.334;2022-11-10T16:54:36;12.70;99.90
25024;DHT22;13033;50.936;5.334;2022-11-10T16:57:15;12.50;99.90
25024;DHT22;13033;50.936;5.334;2022-11-10T16:59:41;12.50;99.90
25024;DHT22;13033;50.936;5.334;2022-11-10T17:02:29;12.60;99.90
25024;DHT22;13033;50.936;5.334;2022-11-10T17:04:58;12.50;99.90
25024;DHT22;13033;50.936;5.334;2022-11-10T17:07:25;12.50;99.90
25024;DHT22;13033;50.936;5.334;2022-11-10T17:09:51;12.50;99.90
25024;DHT22;13033;50.936;5.334;2022-11-10T17:12:16;12.40;99.90
25024;DHT22;13033;50.936;5.334;2022-11-10T17:14:42;12.50;99.90
25024;DHT22;13033;50.936;5.334;2022-11-10T17:17:14;12.40;99.90
25024;DHT22;13033;50.936;5.334;2022-11-10T17:19:41;12.30;99.90
25024;DHT22;13033;50.936;5.334;2022-11-10T17:22:11;12.30;99.90
25024;DHT22;13033;50.936;5.334;2022-11-10T17:24:39;12.30;99.90
25024;DHT22;13033;50.936;5.334;2022-11-10T17:27:04;12.20;99.90
25024;DHT22;13033;50.936;5.334;2022-11-10T17:29:30;12.20;99.90
25024;DHT22;13033;50.936;5.334;2022-11-10T17:31:55;12.30;99.90
25024;DHT22;13033;50.936;5.334;2022-11-10T17:34:21;12.30;99.90
25024;DHT22;13033;50.936;5.334;2022-11-10T17:36:50;12.30;99.90
25024;DHT22;13033;50.936;5.334;2022-11-10T17:39:16;12.20;99.90
25024;DHT22;13033;50.936;5.334;2022-11-10T17:41:42;12.30;99.90
25024;DHT22;13033;50.936;5.334;2022-11-10T17:44:12;12.20;99.90